createdAt,value
2023-04-25T00:02:10.254Z,97274.00
2023-04-25T00:07:42.818Z,97274.00
2023-04-25T00:13:16.563Z,97281.00
2023-04-25T00:19:06.465Z,97282.00
2023-04-25T00:24:33.656Z,97278.00
2023-04-25T00:29:55.390Z,97278.00
2023-04-25T00:35:17.002Z,97277.00
2023-04-25T00:40:38.490Z,97274.00
2023-04-25T00:46:29.779Z,97264.00
2023-04-25T00:52:15.520Z,97257.00
2023-04-25T00:58:03.297Z,97259.00
2023-04-25T01:03:33.940Z,97264.00
2023-04-25T01:09:11.427Z,97263.00
2023-04-25T01:15:01.398Z,97249.00
2023-04-25T01:20:45.194Z,97256.00
2023-04-25T01:26:22.496Z,97254.00
2023-04-25T01:31:46.615Z,97244.00
2023-04-25T01:37:24.200Z,97234.00
2023-04-25T01:43:11.638Z,97237.00
2023-04-25T01:48:54.357Z,97239.00
2023-04-25T01:54:24.113Z,97231.00
2023-04-25T01:59:47.288Z,97234.00
2023-04-25T02:05:37.815Z,97237.00
2023-04-25T02:11:26.759Z,97230.00
2023-04-25T02:17:22.348Z,97235.00
2023-04-25T02:23:05.927Z,97236.00
2023-04-25T02:28:46.096Z,97226.00
2023-04-25T02:34:22.721Z,97226.00
2023-04-25T02:39:44.420Z,97226.00
2023-04-25T02:45:07.665Z,97214.00
2023-04-25T02:50:29.917Z,97217.00
2023-04-25T02:56:07.866Z,97208.00
2023-04-25T03:02:07.216Z,97213.00
2023-04-25T03:07:40.171Z,97207.00
2023-04-25T03:13:16.821Z,97202.00
2023-04-25T03:18:44.563Z,97203.00
2023-04-25T03:24:13.850Z,97208.00
2023-04-25T03:29:36.767Z,97196.00
2023-04-25T03:35:00.106Z,97197.00
2023-04-25T03:40:23.063Z,97212.00
2023-04-25T03:46:27.488Z,97195.00
2023-04-25T03:52:06.561Z,97199.00
2023-04-25T03:58:12.777Z,97201.00
2023-04-25T04:09:43.874Z,97211.00
2023-04-25T04:15:17.115Z,97206.00
2023-04-25T04:20:40.292Z,97214.00
2023-04-25T04:26:33.171Z,97218.00
2023-04-25T04:32:21.457Z,97221.00
2023-04-25T04:38:09.389Z,97230.00
2023-04-25T04:43:43.602Z,97222.00
2023-04-25T04:49:25.561Z,97222.00
2023-04-25T04:55:00.556Z,97229.00
2023-04-25T05:00:30.656Z,97239.00
2023-04-25T05:06:54.359Z,97240.00
2023-04-25T05:13:10.880Z,97238.00
2023-04-25T05:19:13.161Z,97228.00
2023-04-25T05:25:09.044Z,97231.00
2023-04-25T05:30:49.384Z,97234.00
2023-04-25T05:36:33.589Z,97234.00
2023-04-25T05:42:24.058Z,97235.00
2023-04-25T05:48:03.271Z,97238.00
2023-04-25T05:53:54.076Z,97243.00
2023-04-25T05:59:25.961Z,97240.00
2023-04-25T06:04:55.690Z,97248.00
2023-04-25T06:10:18.178Z,97249.00
2023-04-25T06:15:39.793Z,97261.00
2023-04-25T06:21:24.508Z,97268.00
2023-04-25T06:27:15.782Z,97268.00
2023-04-25T06:33:02.405Z,97274.00
2023-04-25T06:38:47.027Z,97269.00
2023-04-25T06:44:09.602Z,97277.00
2023-04-25T06:49:39.546Z,97281.00
2023-04-25T06:55:01.494Z,97281.00
2023-04-25T07:00:35.595Z,97289.00
2023-04-25T07:06:18.053Z,97292.00
2023-04-25T07:11:42.184Z,97287.00
2023-04-25T07:17:18.959Z,97297.00
2023-04-25T07:23:01.570Z,97301.00
2023-04-25T07:28:48.883Z,97294.00
2023-04-25T07:34:22.390Z,97300.00
2023-04-25T07:39:44.436Z,97312.00
2023-04-25T07:45:06.508Z,97304.00
2023-04-25T07:50:28.082Z,97318.00
2023-04-25T07:56:01.747Z,97313.00
2023-04-25T08:02:12.592Z,97327.00
2023-04-25T08:07:45.075Z,97321.00
2023-04-25T08:13:18.584Z,97317.00
2023-04-25T08:18:50.714Z,97321.00
2023-04-25T08:24:23.599Z,97326.00
2023-04-25T08:29:46.475Z,97333.00
2023-04-25T08:35:09.409Z,97345.00
2023-04-25T08:40:33.969Z,97349.00
2023-04-25T08:46:29.340Z,97356.00
2023-04-25T08:52:30.717Z,97361.00
2023-04-25T08:58:05.837Z,97364.00
2023-04-25T09:03:54.563Z,97382.00
2023-04-25T09:09:22.667Z,97381.00
2023-04-25T09:14:44.936Z,97388.00
2023-04-25T09:20:33.353Z,97390.00
2023-04-25T09:26:26.005Z,97402.00
2023-04-25T09:32:23.979Z,97408.00
2023-04-25T09:38:10.050Z,97416.00
2023-04-25T09:44:05.214Z,97420.00
2023-04-25T09:49:37.708Z,97407.00
2023-04-25T09:55:04.025Z,97422.00
2023-04-25T10:00:29.679Z,97421.00
2023-04-25T10:06:26.339Z,97423.00
2023-04-25T10:11:53.064Z,97421.00
2023-04-25T10:17:31.619Z,97423.00
2023-04-25T10:23:20.262Z,97441.00
2023-04-25T10:29:11.054Z,97460.00
2023-04-25T10:34:41.847Z,97460.00
2023-04-25T10:40:11.176Z,97458.00
2023-04-25T10:45:55.899Z,97456.00
2023-04-25T10:51:54.876Z,97470.00
2023-04-25T10:58:05.861Z,97479.00
2023-04-25T11:03:52.651Z,97477.00
2023-04-25T11:09:26.245Z,97474.00
2023-04-25T11:14:47.718Z,97480.00
2023-04-25T11:20:12.469Z,97486.00
2023-04-25T11:25:35.399Z,97481.00
2023-04-25T11:31:17.541Z,97489.00
2023-04-25T11:36:50.495Z,97502.00
2023-04-25T11:42:27.506Z,97497.00
2023-04-25T11:48:11.087Z,97494.00
2023-04-25T11:53:47.761Z,97494.00
2023-04-25T11:59:16.491Z,97505.00
2023-04-25T12:05:00.943Z,97504.00
2023-04-25T12:10:32.662Z,97517.00
2023-04-25T12:16:26.561Z,97513.00
2023-04-25T12:22:27.424Z,97514.00
2023-04-25T12:28:09.739Z,97527.00
2023-04-25T12:33:47.344Z,97539.00
2023-04-25T12:39:33.240Z,97543.00
2023-04-25T12:45:00.742Z,97542.00
2023-04-25T12:50:22.155Z,97557.00
2023-04-25T12:55:43.869Z,97549.00
2023-04-25T13:01:06.407Z,97559.00
2023-04-25T13:06:51.279Z,97564.00
2023-04-25T13:12:14.428Z,97560.00
2023-04-25T13:17:54.294Z,97550.00
2023-04-25T13:23:40.229Z,97557.00
2023-04-25T13:29:09.055Z,97567.00
2023-04-25T13:34:31.904Z,97561.00
2023-04-25T13:39:53.551Z,97560.00
2023-04-25T13:45:16.264Z,97564.00
2023-04-25T13:50:37.848Z,97565.00
2023-04-25T13:56:29.083Z,97558.00
2023-04-25T14:02:12.119Z,97558.00
2023-04-25T14:08:18.686Z,97559.00
2023-04-25T14:14:43.868Z,97550.00
2023-04-25T14:20:48.891Z,97554.00
2023-04-25T14:26:24.351Z,97565.00
2023-04-25T14:32:14.094Z,97574.00
2023-04-25T14:38:06.702Z,97596.00
2023-04-25T14:43:43.273Z,97596.00
2023-04-25T14:49:15.514Z,97625.00
2023-04-25T14:54:39.092Z,97622.00
2023-04-25T15:00:00.735Z,97617.00
2023-04-25T15:11:33.689Z,97624.00
2023-04-25T15:17:19.607Z,97635.00
2023-04-25T15:23:05.537Z,97625.00
2023-04-25T15:34:18.372Z,97635.00
2023-04-25T15:39:42.005Z,97633.00
2023-04-25T15:45:05.392Z,97633.00
2023-04-25T15:50:30.511Z,97630.00
2023-04-25T15:56:15.483Z,97627.00
2023-04-25T16:01:59.436Z,97641.00
2023-04-25T16:07:40.594Z,97642.00
2023-04-25T16:13:02.549Z,97642.00
2023-04-25T16:18:43.990Z,97647.00
2023-04-25T16:24:13.316Z,97641.00
2023-04-25T16:29:36.162Z,97654.00
2023-04-25T16:34:59.032Z,97653.00
2023-04-25T16:40:21.148Z,97659.00
2023-04-25T16:45:42.713Z,97656.00
2023-04-25T16:51:30.552Z,97663.00
2023-04-25T16:57:05.535Z,97665.00
2023-04-25T17:02:45.539Z,97670.00
2023-04-25T17:08:15.839Z,97685.00
2023-04-25T17:13:48.171Z,97672.00
2023-04-25T17:19:17.712Z,97679.00
2023-04-25T17:24:40.872Z,97683.00
2023-04-25T17:30:04.090Z,97696.00
2023-04-25T17:35:26.258Z,97705.00
2023-04-25T17:40:49.367Z,97698.00
2023-04-25T17:46:31.557Z,97699.00
2023-04-25T17:52:14.304Z,97716.00
2023-04-25T17:57:58.810Z,97704.00
2023-04-25T18:03:57.480Z,97723.00
2023-04-25T18:09:25.692Z,97731.00
2023-04-25T18:14:47.313Z,97727.00
2023-04-25T18:20:15.821Z,97746.00
2023-04-25T18:25:37.315Z,97745.00
2023-04-25T18:31:30.563Z,97742.00
2023-04-25T18:37:13.082Z,97760.00
2023-04-25T18:42:57.240Z,97765.00
2023-04-25T18:48:42.853Z,97777.00
2023-04-25T18:54:14.172Z,97787.00
2023-04-25T18:59:38.508Z,97793.00
2023-04-25T19:05:20.458Z,97787.00
2023-04-25T19:11:20.637Z,97794.00
2023-04-25T19:17:12.088Z,97803.00
2023-04-25T19:23:06.545Z,97808.00
2023-04-25T19:28:45.131Z,97808.00
2023-04-25T19:34:18.735Z,97814.00
2023-04-25T19:39:41.287Z,97809.00
2023-04-25T19:45:02.764Z,97819.00
2023-04-25T19:50:24.255Z,97815.00
2023-04-25T19:55:45.887Z,97820.00
2023-04-25T20:01:07.766Z,97831.00
2023-04-25T20:06:52.268Z,97830.00
2023-04-25T20:12:27.853Z,97834.00
2023-04-25T20:18:01.586Z,97844.00
2023-04-25T20:23:32.188Z,97837.00
2023-04-25T20:29:11.975Z,97837.00
2023-04-25T20:34:34.610Z,97839.00
2023-04-25T20:39:55.782Z,97826.00
2023-04-25T20:45:17.844Z,97841.00
2023-04-25T20:50:39.586Z,97842.00
2023-04-25T20:56:29.542Z,97831.00
2023-04-25T21:02:13.333Z,97850.00
2023-04-25T21:07:42.327Z,97858.00
2023-04-25T21:13:09.570Z,97861.00
2023-04-25T21:18:43.056Z,97865.00
2023-04-25T21:24:17.819Z,97875.00
2023-04-25T21:29:41.043Z,97873.00
2023-04-25T21:35:03.002Z,97869.00
2023-04-25T21:40:24.649Z,97873.00
2023-04-25T21:46:09.104Z,97871.00
2023-04-25T21:51:53.693Z,97871.00
2023-04-25T21:57:31.899Z,97884.00
2023-04-25T22:03:30.423Z,97880.00
2023-04-25T22:08:56.583Z,97879.00
2023-04-25T22:14:36.954Z,97881.00
2023-04-25T22:20:42.992Z,97895.00
2023-04-25T22:32:13.708Z,97902.00
2023-04-25T22:37:55.303Z,97904.00
2023-04-25T22:43:30.221Z,97905.00
2023-04-25T22:49:14.544Z,97914.00
2023-04-25T22:54:37.818Z,97937.00
2023-04-25T22:59:59.443Z,97947.00
2023-04-25T23:05:44.159Z,97955.00
2023-04-25T23:11:29.751Z,97952.00
2023-04-25T23:17:05.180Z,97941.00
2023-04-25T23:22:47.941Z,97952.00
2023-04-25T23:28:27.208Z,97948.00
2023-04-25T23:34:09.301Z,97941.00
2023-04-25T23:39:33.769Z,97950.00
2023-04-25T23:44:55.276Z,97939.00
2023-04-25T23:50:16.858Z,97947.00
2023-04-25T23:55:38.407Z,97943.00
